Terminal Aerodrome Forecast
Issued by NWS

Home | Current Version | Previous Version | Text Only | Print | Product List | Glossary On
Versions: 1 2 3 4 5 6 7 8 9 10 11 12 13 14 15 16 17
002
FTUS46 KMFR 240525
TAFOTH
TAF
KOTH 240525Z 2406/2506 VRB03KT P6SM BKN030 BKN040
     FM240800 VRB03KT P6SM OVC020
     FM241600 35007KT P6SM SCT020 BKN040
     FM242000 35015G22KT P6SM FEW025 SCT050
     FM250200 35010KT P6SM BKN020=

USA.gov is the U.S. government's official web portal to all federal, state and local government web resources and services.